sensor_id;sensor_type;location;lat;lon;timestamp;pressure;altitude;pressure_sealevel;temperature;humidity
11487;BME280;10510;47.942;9.442;2023-03-18T00:01:56;94241.41;;;4.85;100.00
11487;BME280;10510;47.942;9.442;2023-03-18T00:03:57;94233.50;;;4.87;100.00
11487;BME280;10510;47.942;9.442;2023-03-18T00:08:04;94236.09;;;4.87;100.00
11487;BME280;10510;47.942;9.442;2023-03-18T00:10:06;94231.72;;;4.87;100.00
11487;BME280;10510;47.942;9.442;2023-03-18T00:12:07;94235.41;;;4.85;100.00
11487;BME280;10510;47.942;9.442;2023-03-18T00:14:08;94238.19;;;4.83;100.00
11487;BME280;10510;47.942;9.442;2023-03-18T00:16:10;94242.56;;;4.83;100.00
11487;BME280;10510;47.942;9.442;2023-03-18T00:18:10;94251.28;;;4.82;100.00
11487;BME280;10510;47.942;9.442;2023-03-18T00:20:11;94246.41;;;4.78;100.00
11487;BME280;10510;47.942;9.442;2023-03-18T00:22:12;94247.69;;;4.74;100.00
11487;BME280;10510;47.942;9.442;2023-03-18T00:24:13;94254.97;;;4.71;100.00
11487;BME280;10510;47.942;9.442;2023-03-18T00:26:14;94252.69;;;4.68;100.00
11487;BME280;10510;47.942;9.442;2023-03-18T00:28:14;94252.03;;;4.66;100.00
11487;BME280;10510;47.942;9.442;2023-03-18T00:30:15;94253.16;;;4.63;100.00
11487;BME280;10510;47.942;9.442;2023-03-18T00:32:16;94249.09;;;4.61;100.00
11487;BME280;10510;47.942;9.442;2023-03-18T00:34:16;94245.84;;;4.59;100.00
11487;BME280;10510;47.942;9.442;2023-03-18T00:36:17;94249.41;;;4.58;100.00
11487;BME280;10510;47.942;9.442;2023-03-18T00:38:18;94250.06;;;4.60;100.00
11487;BME280;10510;47.942;9.442;2023-03-18T00:40:21;94252.66;;;4.60;100.00
11487;BME280;10510;47.942;9.442;2023-03-18T00:42:28;94256.88;;;4.61;100.00
11487;BME280;10510;47.942;9.442;2023-03-18T00:44:36;94255.09;;;4.61;100.00
11487;BME280;10510;47.942;9.442;2023-03-18T00:46:37;94264.50;;;4.62;100.00
11487;BME280;10510;47.942;9.442;2023-03-18T00:48:37;94255.25;;;4.60;100.00
11487;BME280;10510;47.942;9.442;2023-03-18T00:50:38;94260.56;;;4.58;100.00
11487;BME280;10510;47.942;9.442;2023-03-18T00:52:38;94261.84;;;4.54;100.00
11487;BME280;10510;47.942;9.442;2023-03-18T00:54:38;94258.13;;;4.48;100.00
11487;BME280;10510;47.942;9.442;2023-03-18T00:56:39;94259.41;;;4.44;100.00
11487;BME280;10510;47.942;9.442;2023-03-18T00:58:40;94261.47;;;4.41;100.00
11487;BME280;10510;47.942;9.442;2023-03-18T01:00:40;94257.41;;;4.38;100.00
11487;BME280;10510;47.942;9.442;2023-03-18T01:02:42;94261.94;;;4.36;100.00
11487;BME280;10510;47.942;9.442;2023-03-18T01:04:42;94261.94;;;4.36;100.00
11487;BME280;10510;47.942;9.442;2023-03-18T01:06:43;94259.34;;;4.36;100.00
11487;BME280;10510;47.942;9.442;2023-03-18T01:08:44;94261.94;;;4.36;100.00
11487;BME280;10510;47.942;9.442;2023-03-18T01:10:44;94266.44;;;4.34;100.00
11487;BME280;10510;47.942;9.442;2023-03-18T01:12:44;94261.28;;;4.34;100.00
11487;BME280;10510;47.942;9.442;2023-03-18T01:14:48;94258.03;;;4.32;100.00
11487;BME280;10510;47.942;9.442;2023-03-18T01:16:48;94257.22;;;4.31;100.00
11487;BME280;10510;47.942;9.442;2023-03-18T01:18:49;94257.22;;;4.31;100.00
11487;BME280;10510;47.942;9.442;2023-03-18T01:20:50;94258.84;;;4.32;100.00
11487;BME280;10510;47.942;9.442;2023-03-18T01:22:50;94251.09;;;4.32;100.00
11487;BME280;10510;47.942;9.442;2023-03-18T01:24:51;94255.28;;;4.33;100.00
11487;BME280;10510;47.942;9.442;2023-03-18T01:26:51;94258.69;;;4.34;100.00
11487;BME280;10510;47.942;9.442;2023-03-18T01:28:52;94257.72;;;4.35;100.00
11487;BME280;10510;47.942;9.442;2023-03-18T01:30:53;94266.44;;;4.34;100.00
11487;BME280;10510;47.942;9.442;2023-03-18T01:32:54;94254.50;;;4.33;100.00
11487;BME280;10510;47.942;9.442;2023-03-18T01:34:54;94254.81;;;4.30;100.00
11487;BME280;10510;47.942;9.442;2023-03-18T01:36:55;94250.56;;;4.29;100.00
11487;BME280;10510;47.942;9.442;2023-03-18T01:38:56;94248.81;;;4.29;100.00
11487;BME280;10510;47.942;9.442;2023-03-18T01:40:59;94251.41;;;4.29;100.00
11487;BME280;10510;47.942;9.442;2023-03-18T01:47:15;94248.19;;;4.36;100.00
11487;BME280;10510;47.942;9.442;2023-03-18T01:51:25;94257.44;;;4.46;100.00
11487;BME280;10510;47.942;9.442;2023-03-18T01:53:29;94253.44;;;4.52;100.00
11487;BME280;10510;47.942;9.442;2023-03-18T01:55:31;94252.81;;;4.58;100.00
11487;BME280;10510;47.942;9.442;2023-03-18T01:57:33;94261.06;;;4.62;100.00
11487;BME280;10510;47.942;9.442;2023-03-18T01:59:37;94253.97;;;4.64;100.00
11487;BME280;10510;47.942;9.442;2023-03-18T02:01:47;94249.28;;;4.67;100.00
11487;BME280;10510;47.942;9.442;2023-03-18T02:03:49;94250.59;;;4.71;100.00
11487;BME280;10510;47.942;9.442;2023-03-18T02:05:50;94252.22;;;4.72;100.00
11487;BME280;10510;47.942;9.442;2023-03-18T02:07:51;94245.91;;;4.75;100.00
11487;BME280;10510;47.942;9.442;2023-03-18T02:09:53;94247.53;;;4.76;100.00
11487;BME280;10510;47.942;9.442;2023-03-18T02:11:54;94244.00;;;4.77;100.00
11487;BME280;10510;47.942;9.442;2023-03-18T02:13:55;94242.03;;;4.79;100.00
11487;BME280;10510;47.942;9.442;2023-03-18T02:16:07;94256.44;;;4.82;100.00
11487;BME280;10510;47.942;9.442;2023-03-18T02:18:18;94251.13;;;4.83;100.00
11487;BME280;10510;47.942;9.442;2023-03-18T02:20:45;94243.19;;;4.85;100.00
11487;BME280;10510;47.942;9.442;2023-03-18T02:22:54;94246.59;;;4.85;100.00
11487;BME280;10510;47.942;9.442;2023-03-18T02:25:27;94243.03;;;4.86;100.00
11487;BME280;10510;47.942;9.442;2023-03-18T02:27:34;94247.25;;;4.87;100.00
11487;BME280;10510;47.942;9.442;2023-03-18T02:29:36;94250.94;;;4.85;100.00
11487;BME280;10510;47.942;9.442;2023-03-18T02:31:37;94255.50;;;4.83;100.00
11487;BME280;10510;47.942;9.442;2023-03-18T02:33:39;94255.28;;;4.76;100.00
11487;BME280;10510;47.942;9.442;2023-03-18T02:35:43;94251.41;;;4.72;100.00
11487;BME280;10510;47.942;9.442;2023-03-18T02:37:44;94252.53;;;4.69;100.00
11487;BME280;10510;47.942;9.442;2023-03-18T02:39:45;94254.47;;;4.67;100.00
11487;BME280;10510;47.942;9.442;2023-03-18T02:41:45;94250.44;;;4.65;100.00
11487;BME280;10510;47.942;9.442;2023-03-18T02:43:47;94253.97;;;4.64;100.00
11487;BME280;10510;47.942;9.442;2023-03-18T02:48:01;94261.56;;;4.57;100.00
11487;BME280;10510;47.942;9.442;2023-03-18T02:50:04;94265.25;;;4.54;100.00
11487;BME280;10510;47.942;9.442;2023-03-18T02:52:04;94262.97;;;4.51;100.00
11487;BME280;10510;47.942;9.442;2023-03-18T02:54:10;94255.53;;;4.48;100.00
11487;BME280;10510;47.942;9.442;2023-03-18T02:56:11;94261.00;;;4.45;100.00
11487;BME280;10510;47.942;9.442;2023-03-18T02:58:11;94266.81;;;4.39;100.00
11487;BME280;10510;47.942;9.442;2023-03-18T03:00:12;94267.44;;;4.33;100.00
11487;BME280;10510;47.942;9.442;2023-03-18T03:02:12;94267.22;;;4.26;100.00
11487;BME280;10510;47.942;9.442;2023-03-18T03:04:14;94275.44;;;4.22;100.00
11487;BME280;10510;47.942;9.442;2023-03-18T03:06:15;94264.59;;;4.18;100.00
11487;BME280;10510;47.942;9.442;2023-03-18T03:08:16;94267.31;;;4.17;100.00
11487;BME280;10510;47.942;9.442;2023-03-18T03:10:16;94264.91;;;4.15;100.00
11487;BME280;10510;47.942;9.442;2023-03-18T03:12:16;94269.91;;;4.17;100.00
11487;BME280;10510;47.942;9.442;2023-03-18T03:14:17;94270.88;;;4.16;100.00
11487;BME280;10510;47.942;9.442;2023-03-18T03:16:17;94268.31;;;4.16;100.00
11487;BME280;10510;47.942;9.442;2023-03-18T03:18:18;94276.88;;;4.16;100.00
11487;BME280;10510;47.942;9.442;2023-03-18T03:20:20;94270.22;;;4.14;100.00
11487;BME280;10510;47.942;9.442;2023-03-18T03:22:20;94272.00;;;4.13;100.00
11487;BME280;10510;47.942;9.442;2023-03-18T03:24:20;94265.22;;;4.12;100.00
11487;BME280;10510;47.942;9.442;2023-03-18T03:26:21;94277.31;;;4.12;100.00
11487;BME280;10510;47.942;9.442;2023-03-18T03:28:21;94271.50;;;4.09;100.00
11487;BME280;10510;47.942;9.442;2023-03-18T03:30:22;94275.88;;;4.09;100.00
11487;BME280;10510;47.942;9.442;2023-03-18T03:32:22;94268.09;;;4.09;100.00
11487;BME280;10510;47.942;9.442;2023-03-18T03:34:22;94267.28;;;4.08;100.00
11487;BME280;10510;47.942;9.442;2023-03-18T03:36:24;94269.06;;;4.08;100.00
11487;BME280;10510;47.942;9.442;2023-03-18T03:38:25;94278.75;;;4.06;100.00
11487;BME280;10510;47.942;9.442;2023-03-18T03:40:25;94279.69;;;4.05;100.00
11487;BME280;10510;47.942;9.442;2023-03-18T03:42:26;94277.28;;;4.03;100.00
11487;BME280;10510;47.942;9.442;2023-03-18T03:44:26;94279.19;;;4.01;100.00
11487;BME280;10510;47.942;9.442;2023-03-18T03:46:27;94273.03;;;3.94;100.00
11487;BME280;10510;47.942;9.442;2023-03-18T03:48:27;94270.06;;;3.89;100.00
11487;BME280;10510;47.942;9.442;2023-03-18T03:50:27;94265.22;;;3.86;100.00
11487;BME280;10510;47.942;9.442;2023-03-18T03:52:28;94263.56;;;3.85;100.00
11487;BME280;10510;47.942;9.442;2023-03-18T03:54:28;94264.53;;;3.84;100.00
11487;BME280;10510;47.942;9.442;2023-03-18T03:56:28;94265.50;;;3.83;100.00
11487;BME280;10510;47.942;9.442;2023-03-18T03:58:30;94273.41;;;3.81;100.00
11487;BME280;10510;47.942;9.442;2023-03-18T04:00:30;94276.78;;;3.82;100.00
11487;BME280;10510;47.942;9.442;2023-03-18T04:02:32;94279.03;;;3.77;100.00
11487;BME280;10510;47.942;9.442;2023-03-18T04:04:32;94278.38;;;3.75;100.00
11487;BME280;10510;47.942;9.442;2023-03-18T04:06:33;94280.28;;;3.73;100.00
11487;BME280;10510;47.942;9.442;2023-03-18T04:08:33;94282.22;;;3.71;100.00
11487;BME280;10510;47.942;9.442;2023-03-18T04:10:34;94270.25;;;3.70;100.00
11487;BME280;10510;47.942;9.442;2023-03-18T04:12:36;94274.09;;;3.66;100.00
11487;BME280;10510;47.942;9.442;2023-03-18T04:14:37;94274.41;;;3.62;100.00
11487;BME280;10510;47.942;9.442;2023-03-18T04:16:37;94279.88;;;3.59;100.00
11487;BME280;10510;47.942;9.442;2023-03-18T04:18:38;94279.88;;;3.59;100.00
11487;BME280;10510;47.942;9.442;2023-03-18T04:20:38;94279.88;;;3.59;100.00
11487;BME280;10510;47.942;9.442;2023-03-18T04:22:39;94279.06;;;3.59;100.00
11487;BME280;10510;47.942;9.442;2023-03-18T04:24:39;94280.81;;;3.58;100.00
11487;BME280;10510;47.942;9.442;2023-03-18T04:26:39;94290.50;;;3.56;100.00
11487;BME280;10510;47.942;9.442;2023-03-18T04:28:40;94288.34;;;3.52;100.00
11487;BME280;10510;47.942;9.442;2023-03-18T04:30:40;94281.88;;;3.48;100.00
11487;BME280;10510;47.942;9.442;2023-03-18T04:32:41;94286.44;;;3.36;100.00
11487;BME280;10510;47.942;9.442;2023-03-18T04:34:41;94285.06;;;3.24;100.00
11487;BME280;10510;47.942;9.442;2023-03-18T04:36:41;94287.03;;;3.12;100.00
11487;BME280;10510;47.942;9.442;2023-03-18T04:38:41;94287.59;;;3.06;100.00
11487;BME280;10510;47.942;9.442;2023-03-18T04:40:42;94283.56;;;3.03;100.00
11487;BME280;10510;47.942;9.442;2023-03-18T04:42:42;94281.09;;;3.02;100.00
11487;BME280;10510;47.942;9.442;2023-03-18T04:44:44;94284.66;;;3.01;100.00
11487;BME280;10510;47.942;9.442;2023-03-18T04:46:45;94280.59;;;2.98;100.00
11487;BME280;10510;47.942;9.442;2023-03-18T04:48:45;94272.16;;;2.96;100.00
11487;BME280;10510;47.942;9.442;2023-03-18T04:50:45;94287.66;;;2.96;100.00
11487;BME280;10510;47.942;9.442;2023-03-18T04:52:46;94291.34;;;2.93;100.00
11487;BME280;10510;47.942;9.442;2023-03-18T04:54:46;94283.59;;;2.93;100.00
11487;BME280;10510;47.942;9.442;2023-03-18T04:56:47;94289.84;;;2.91;100.00
11487;BME280;10510;47.942;9.442;2023-03-18T04:58:47;94298.56;;;2.90;100.00
11487;BME280;10510;47.942;9.442;2023-03-18T05:00:48;94291.63;;;2.90;100.00
11487;BME280;10510;47.942;9.442;2023-03-18T05:02:49;94288.41;;;2.88;100.00
11487;BME280;10510;47.942;9.442;2023-03-18T05:04:49;94291.91;;;2.87;100.00
11487;BME280;10510;47.942;9.442;2023-03-18T05:06:50;94293.69;;;2.87;100.00
11487;BME280;10510;47.942;9.442;2023-03-18T05:08:51;94294.66;;;2.86;100.00
11487;BME280;10510;47.942;9.442;2023-03-18T05:10:52;94284.47;;;2.84;100.00
11487;BME280;10510;47.942;9.442;2023-03-18T05:12:52;94290.44;;;2.85;100.00
11487;BME280;10510;47.942;9.442;2023-03-18T05:14:53;94294.78;;;2.84;100.00
11487;BME280;10510;47.942;9.442;2023-03-18T05:16:53;94287.84;;;2.85;100.00
11487;BME280;10510;47.942;9.442;2023-03-18T05:18:53;94286.09;;;2.85;100.00
11487;BME280;10510;47.942;9.442;2023-03-18T05:20:53;94288.81;;;2.84;100.00
11487;BME280;10510;47.942;9.442;2023-03-18T05:22:54;94280.69;;;2.79;100.00
11487;BME280;10510;47.942;9.442;2023-03-18T05:24:54;94284.25;;;2.78;100.00
11487;BME280;10510;47.942;9.442;2023-03-18T05:26:55;94291.31;;;2.76;100.00
11487;BME280;10510;47.942;9.442;2023-03-18T05:28:56;94287.91;;;2.75;100.00
11487;BME280;10510;47.942;9.442;2023-03-18T05:30:57;94288.03;;;2.73;100.00
11487;BME280;10510;47.942;9.442;2023-03-18T05:32:58;94289.00;;;2.72;100.00
11487;BME280;10510;47.942;9.442;2023-03-18T05:34:58;94282.06;;;2.73;100.00
11487;BME280;10510;47.942;9.442;2023-03-18T05:36:58;94284.66;;;2.73;100.00
11487;BME280;10510;47.942;9.442;2023-03-18T05:38:59;94282.88;;;2.73;100.00
11487;BME280;10510;47.942;9.442;2023-03-18T05:40:59;94288.03;;;2.73;100.00
11487;BME280;10510;47.942;9.442;2023-03-18T05:43:00;94286.44;;;2.72;100.00
11487;BME280;10510;47.942;9.442;2023-03-18T05:45:01;94298.66;;;2.70;100.00
11487;BME280;10510;47.942;9.442;2023-03-18T05:47:01;94291.22;;;2.67;100.00
11487;BME280;10510;47.942;9.442;2023-03-18T05:49:02;94293.44;;;2.62;100.00
11487;BME280;10510;47.942;9.442;2023-03-18T05:51:02;94287.59;;;2.60;100.00
11487;BME280;10510;47.942;9.442;2023-03-18T05:53:04;94291.41;;;2.56;100.00
11487;BME280;10510;47.942;9.442;2023-03-18T05:55:04;94288.28;;;2.53;100.00
11487;BME280;10510;47.942;9.442;2023-03-18T05:57:05;94293.59;;;2.51;100.00
11487;BME280;10510;47.942;9.442;2023-03-18T05:59:06;94283.56;;;2.48;100.00
11487;BME280;10510;47.942;9.442;2023-03-18T06:01:06;94293.59;;;2.51;100.00
11487;BME280;10510;47.942;9.442;2023-03-18T06:03:07;94293.31;;;2.54;100.00
11487;BME280;10510;47.942;9.442;2023-03-18T06:05:08;94285.41;;;2.56;100.00
11487;BME280;10510;47.942;9.442;2023-03-18T06:07:09;94291.13;;;2.59;100.00
11487;BME280;10510;47.942;9.442;2023-03-18T06:09:12;94291.38;;;2.66;100.00
11487;BME280;10510;47.942;9.442;2023-03-18T06:11:13;94291.88;;;2.69;100.00
11487;BME280;10510;47.942;9.442;2023-03-18T06:13:14;94287.25;;;2.73;100.00
11487;BME280;10510;47.942;9.442;2023-03-18T06:15:14;94289.53;;;2.76;100.00
11487;BME280;10510;47.942;9.442;2023-03-18T06:17:14;94284.25;;;2.78;100.00
11487;BME280;10510;47.942;9.442;2023-03-18T06:19:15;94285.56;;;2.82;100.00
11487;BME280;10510;47.942;9.442;2023-03-18T06:21:16;94283.50;;;2.85;100.00
11487;BME280;10510;47.942;9.442;2023-03-18T06:23:16;94288.25;;;2.90;100.00
11487;BME280;10510;47.942;9.442;2023-03-18T06:25:20;94289.56;;;2.94;100.00
11487;BME280;10510;47.942;9.442;2023-03-18T06:27:20;94283.84;;;3.00;100.00
11487;BME280;10510;47.942;9.442;2023-03-18T06:29:21;94281.91;;;3.02;100.00
11487;BME280;10510;47.942;9.442;2023-03-18T06:31:21;94294.97;;;3.01;100.00
11487;BME280;10510;47.942;9.442;2023-03-18T06:33:23;94297.84;;;2.98;100.00
11487;BME280;10510;47.942;9.442;2023-03-18T06:35:24;94288.63;;;2.95;100.00
11487;BME280;10510;47.942;9.442;2023-03-18T06:37:26;94294.44;;;2.97;100.00
11487;BME280;10510;47.942;9.442;2023-03-18T06:39:27;94292.53;;;2.99;100.00
11487;BME280;10510;47.942;9.442;2023-03-18T06:41:27;94289.81;;;3.01;100.00
11487;BME280;10510;47.942;9.442;2023-03-18T06:43:28;94291.94;;;3.05;100.00
11487;BME280;10510;47.942;9.442;2023-03-18T06:45:28;94290.56;;;3.11;100.00
11487;BME280;10510;47.942;9.442;2023-03-18T06:47:29;94287.25;;;3.18;100.00
11487;BME280;10510;47.942;9.442;2023-03-18T06:49:29;94283.91;;;3.26;100.00
11487;BME280;10510;47.942;9.442;2023-03-18T06:51:31;94290.53;;;3.38;100.00
11487;BME280;10510;47.942;9.442;2023-03-18T06:53:34;94290.28;;;3.50;100.00
11487;BME280;10510;47.942;9.442;2023-03-18T06:55:35;94293.44;;;3.61;100.00
11487;BME280;10510;47.942;9.442;2023-03-18T06:57:37;94293.22;;;3.73;100.00
11487;BME280;10510;47.942;9.442;2023-03-18T06:59:38;94293.28;;;3.81;100.00
11487;BME280;10510;47.942;9.442;2023-03-18T07:01:38;94296.88;;;3.88;100.00
11487;BME280;10510;47.942;9.442;2023-03-18T07:03:40;94293.41;;;3.97;100.00
11487;BME280;10510;47.942;9.442;2023-03-18T07:05:41;94292.50;;;4.06;100.00
11487;BME280;10510;47.942;9.442;2023-03-18T07:07:42;94293.19;;;4.17;100.00
11487;BME280;10510;47.942;9.442;2023-03-18T07:09:43;94291.16;;;4.28;100.00
11487;BME280;10510;47.942;9.442;2023-03-18T07:11:44;94292.50;;;4.41;100.00
11487;BME280;10510;47.942;9.442;2023-03-18T07:13:46;94299.72;;;4.55;100.00
11487;BME280;10510;47.942;9.442;2023-03-18T07:15:46;94307.22;;;4.66;100.00
11487;BME280;10510;47.942;9.442;2023-03-18T07:17:47;94300.63;;;4.80;100.00
11487;BME280;10510;47.942;9.442;2023-03-18T07:19:48;94297.59;;;4.93;100.00
11487;BME280;10510;47.942;9.442;2023-03-18T07:21:49;94303.78;;;5.08;100.00
11487;BME280;10510;47.942;9.442;2023-03-18T07:23:49;94296.22;;;5.23;100.00
11487;BME280;10510;47.942;9.442;2023-03-18T07:25:51;94300.94;;;5.44;100.00
11487;BME280;10510;47.942;9.442;2023-03-18T07:27:51;94296.28;;;5.64;100.00
11487;BME280;10510;47.942;9.442;2023-03-18T07:29:52;94299.38;;;5.84;100.00
11487;BME280;10510;47.942;9.442;2023-03-18T07:31:52;94304.56;;;6.08;100.00
11487;BME280;10510;47.942;9.442;2023-03-18T07:33:56;94299.84;;;6.36;100.00
11487;BME280;10510;47.942;9.442;2023-03-18T07:35:56;94305.41;;;6.73;100.00
11487;BME280;10510;47.942;9.442;2023-03-18T07:37:57;94310.63;;;7.12;100.00
11487;BME280;10510;47.942;9.442;2023-03-18T07:39:58;94301.78;;;7.53;100.00
11487;BME280;10510;47.942;9.442;2023-03-18T07:42:00;94301.13;;;7.96;100.00
11487;BME280;10510;47.942;9.442;2023-03-18T07:44:01;94311.88;;;8.39;100.00
11487;BME280;10510;47.942;9.442;2023-03-18T07:46:03;94306.31;;;8.87;100.00
11487;BME280;10510;47.942;9.442;2023-03-18T07:48:03;94317.94;;;9.36;100.00
11487;BME280;10510;47.942;9.442;2023-03-18T07:50:05;94319.06;;;9.84;100.00
11487;BME280;10510;47.942;9.442;2023-03-18T07:52:05;94315.19;;;10.44;100.00
11487;BME280;10510;47.942;9.442;2023-03-18T07:54:05;94321.53;;;10.91;100.00
11487;BME280;10510;47.942;9.442;2023-03-18T07:56:07;94314.88;;;11.30;100.00
11487;BME280;10510;47.942;9.442;2023-03-18T07:58:09;94313.06;;;11.86;100.00
11487;BME280;10510;47.942;9.442;2023-03-18T08:00:12;94301.41;;;12.28;100.00
11487;BME280;10510;47.942;9.442;2023-03-18T08:02:14;94307.00;;;12.71;100.00
11487;BME280;10510;47.942;9.442;2023-03-18T08:04:15;94307.91;;;13.24;100.00
11487;BME280;10510;47.942;9.442;2023-03-18T08:06:15;94299.22;;;13.75;100.00
11487;BME280;10510;47.942;9.442;2023-03-18T08:08:16;94306.63;;;14.16;100.00
11487;BME280;10510;47.942;9.442;2023-03-18T08:10:16;94301.09;;;14.49;100.00
11487;BME280;10510;47.942;9.442;2023-03-18T08:12:17;94314.72;;;14.71;100.00
11487;BME280;10510;47.942;9.442;2023-03-18T08:14:17;94315.06;;;15.00;100.00
11487;BME280;10510;47.942;9.442;2023-03-18T08:16:18;94314.25;;;15.36;100.00
11487;BME280;10510;47.942;9.442;2023-03-18T08:18:18;94323.59;;;15.69;100.00
11487;BME280;10510;47.942;9.442;2023-03-18T08:20:19;94316.06;;;16.03;100.00
11487;BME280;10510;47.942;9.442;2023-03-18T08:22:20;94310.03;;;16.26;100.00
11487;BME280;10510;47.942;9.442;2023-03-18T08:24:21;94323.56;;;16.29;100.00
11487;BME280;10510;47.942;9.442;2023-03-18T08:26:21;94318.56;;;16.40;100.00
11487;BME280;10510;47.942;9.442;2023-03-18T08:28:21;94316.63;;;16.47;100.00
11487;BME280;10510;47.942;9.442;2023-03-18T08:30:22;94316.75;;;16.75;100.00
11487;BME280;10510;47.942;9.442;2023-03-18T08:32:27;94311.28;;;17.12;100.00
11487;BME280;10510;47.942;9.442;2023-03-18T08:34:27;94305.84;;;17.42;100.00
11487;BME280;10510;47.942;9.442;2023-03-18T08:36:28;94305.16;;;17.76;100.00
11487;BME280;10510;47.942;9.442;2023-03-18T08:38:28;94310.41;;;18.16;100.00
11487;BME280;10510;47.942;9.442;2023-03-18T08:40:29;94306.22;;;18.66;100.00
11487;BME280;10510;47.942;9.442;2023-03-18T08:42:29;94305.81;;;18.91;100.00
11487;BME280;10510;47.942;9.442;2023-03-18T08:44:30;94304.75;;;19.09;100.00
11487;BME280;10510;47.942;9.442;2023-03-18T08:46:31;94311.97;;;19.35;100.00
11487;BME280;10510;47.942;9.442;2023-03-18T08:48:31;94307.91;;;19.49;100.00
11487;BME280;10510;47.942;9.442;2023-03-18T08:50:33;94307.00;;;19.61;100.00
11487;BME280;10510;47.942;9.442;2023-03-18T08:52:35;94303.38;;;19.89;100.00
11487;BME280;10510;47.942;9.442;2023-03-18T08:54:38;94294.88;;;20.14;100.00
11487;BME280;10510;47.942;9.442;2023-03-18T08:56:38;94292.91;;;20.31;100.00
11487;BME280;10510;47.942;9.442;2023-03-18T08:58:39;94299.66;;;20.44;100.00
11487;BME280;10510;47.942;9.442;2023-03-18T09:00:40;94290.06;;;20.65;100.00
11487;BME280;10510;47.942;9.442;2023-03-18T09:02:41;94292.03;;;20.85;100.00
11487;BME280;10510;47.942;9.442;2023-03-18T09:04:42;94287.22;;;20.77;100.00
11487;BME280;10510;47.942;9.442;2023-03-18T09:06:43;94286.16;;;20.78;100.00
11487;BME280;10510;47.942;9.442;2023-03-18T09:08:43;94293.84;;;20.74;100.00
11487;BME280;10510;47.942;9.442;2023-03-18T09:10:44;94288.53;;;20.79;100.00
11487;BME280;10510;47.942;9.442;2023-03-18T09:12:45;94283.28;;;20.84;100.00
11487;BME280;10510;47.942;9.442;2023-03-18T09:14:45;94286.41;;;21.19;100.00
11487;BME280;10510;47.942;9.442;2023-03-18T09:16:46;94278.34;;;21.51;100.00
11487;BME280;10510;47.942;9.442;2023-03-18T09:18:46;94274.06;;;21.40;100.00
11487;BME280;10510;47.942;9.442;2023-03-18T09:20:47;94278.59;;;21.44;100.00
11487;BME280;10510;47.942;9.442;2023-03-18T09:22:47;94271.97;;;21.52;100.00
11487;BME280;10510;47.942;9.442;2023-03-18T09:24:49;94282.56;;;21.47;100.00
11487;BME280;10510;47.942;9.442;2023-03-18T09:26:50;94277.84;;;21.54;100.00
11487;BME280;10510;47.942;9.442;2023-03-18T09:28:50;94281.09;;;21.76;100.00
11487;BME280;10510;47.942;9.442;2023-03-18T09:30:51;94276.06;;;21.85;100.00
11487;BME280;10510;47.942;9.442;2023-03-18T09:32:52;94279.56;;;22.01;100.00
11487;BME280;10510;47.942;9.442;2023-03-18T09:34:53;94277.19;;;22.10;100.00
11487;BME280;10510;47.942;9.442;2023-03-18T09:36:53;94276.13;;;22.11;100.00
11487;BME280;10510;47.942;9.442;2023-03-18T09:38:53;94276.88;;;21.91;100.00
11487;BME280;10510;47.942;9.442;2023-03-18T09:41:13;94270.00;;;22.10;100.00
11487;BME280;10510;47.942;9.442;2023-03-18T09:43:32;94277.53;;;22.39;100.00
11487;BME280;10510;47.942;9.442;2023-03-18T09:48:18;94264.16;;;22.03;100.00
11487;BME280;10510;47.942;9.442;2023-03-18T09:50:37;94264.97;;;22.04;100.00
11487;BME280;10510;47.942;9.442;2023-03-18T09:52:44;94255.06;;;21.94;100.00
11487;BME280;10510;47.942;9.442;2023-03-18T09:54:55;94258.53;;;21.89;100.00
11487;BME280;10510;47.942;9.442;2023-03-18T09:56:58;94262.00;;;22.00;100.00
11487;BME280;10510;47.942;9.442;2023-03-18T09:59:18;94255.09;;;22.14;100.00
11487;BME280;10510;47.942;9.442;2023-03-18T10:01:22;94256.16;;;21.93;100.00
11487;BME280;10510;47.942;9.442;2023-03-18T10:05:49;94262.22;;;21.78;100.00
11487;BME280;10510;47.942;9.442;2023-03-18T10:07:54;94258.22;;;21.65;100.00
11487;BME280;10510;47.942;9.442;2023-03-18T10:10:19;94253.13;;;21.64;100.00
11487;BME280;10510;47.942;9.442;2023-03-18T10:12:33;94257.22;;;21.92;100.00
11487;BME280;10510;47.942;9.442;2023-03-18T10:14:46;94259.94;;;22.17;100.00
11487;BME280;10510;47.942;9.442;2023-03-18T10:17:04;94247.97;;;22.61;100.00
11487;BME280;10510;47.942;9.442;2023-03-18T10:19:07;94252.78;;;22.95;100.00
11487;BME280;10510;47.942;9.442;2023-03-18T10:21:38;94254.75;;;23.44;100.00
11487;BME280;10510;47.942;9.442;2023-03-18T10:26:22;94250.66;;;24.21;100.00
11487;BME280;10510;47.942;9.442;2023-03-18T10:33:18;94251.16;;;25.45;100.00
11487;BME280;10510;47.942;9.442;2023-03-18T10:35:25;94250.44;;;25.10;100.00
11487;BME280;10510;47.942;9.442;2023-03-18T10:39:45;94242.06;;;24.24;100.00
11487;BME280;10510;47.942;9.442;2023-03-18T10:41:49;94235.34;;;23.93;100.00
11487;BME280;10510;47.942;9.442;2023-03-18T10:43:51;94250.09;;;23.80;100.00
11487;BME280;10510;47.942;9.442;2023-03-18T10:45:59;94242.53;;;23.97;100.00
11487;BME280;10510;47.942;9.442;2023-03-18T10:48:10;94239.38;;;23.85;100.00
11487;BME280;10510;47.942;9.442;2023-03-18T10:50:28;94250.25;;;23.39;100.00
11487;BME280;10510;47.942;9.442;2023-03-18T10:52:34;94243.66;;;23.06;100.00
11487;BME280;10510;47.942;9.442;2023-03-18T10:54:44;94247.66;;;22.93;100.00
11487;BME280;10510;47.942;9.442;2023-03-18T10:56:51;94245.03;;;22.98;100.00
11487;BME280;10510;47.942;9.442;2023-03-18T10:58:52;94249.75;;;23.27;100.00
11487;BME280;10510;47.942;9.442;2023-03-18T11:00:52;94250.13;;;23.75;100.00
11487;BME280;10510;47.942;9.442;2023-03-18T11:02:54;94241.09;;;24.10;100.00
11487;BME280;10510;47.942;9.442;2023-03-18T11:05:02;94235.25;;;24.47;100.00
11487;BME280;10510;47.942;9.442;2023-03-18T11:07:13;94238.69;;;24.53;100.00
11487;BME280;10510;47.942;9.442;2023-03-18T11:09:19;94237.41;;;24.45;100.00
11487;BME280;10510;47.942;9.442;2023-03-18T11:11:26;94244.03;;;24.53;100.00